createdAt,value
2019-02-11T00:00:54.726Z,12.90
2019-02-11T00:03:24.704Z,12.80
2019-02-11T00:05:54.472Z,12.80
2019-02-11T00:08:24.330Z,12.80
2019-02-11T00:10:54.252Z,12.80
2019-02-11T00:13:24.080Z,12.90
2019-02-11T00:15:53.730Z,12.90
2019-02-11T00:18:23.669Z,12.90
2019-02-11T00:20:53.691Z,12.90
2019-02-11T00:23:23.627Z,12.90
2019-02-11T00:25:53.581Z,12.90
2019-02-11T00:28:23.646Z,12.90
2019-02-11T00:30:53.651Z,12.90
2019-02-11T00:33:23.554Z,12.90
2019-02-11T00:35:53.346Z,12.90
2019-02-11T00:38:23.339Z,12.90
2019-02-11T00:40:53.466Z,12.80
2019-02-11T00:43:23.919Z,12.80
2019-02-11T00:45:54.033Z,12.80
2019-02-11T00:48:23.760Z,12.70
2019-02-11T00:50:53.658Z,12.70
2019-02-11T00:53:23.522Z,12.80
2019-02-11T00:55:53.433Z,12.80
2019-02-11T00:58:23.037Z,12.80
2019-02-11T01:00:52.817Z,12.70
2019-02-11T01:03:22.357Z,12.70
2019-02-11T01:05:52.387Z,12.60
2019-02-11T01:08:22.395Z,12.60
2019-02-11T01:10:52.243Z,12.60
2019-02-11T01:13:27.430Z,12.60
2019-02-11T01:15:53.188Z,12.60
2019-02-11T01:18:23.081Z,12.60
2019-02-11T01:20:52.822Z,12.60
2019-02-11T01:23:22.563Z,12.50
2019-02-11T01:25:52.345Z,12.50
2019-02-11T01:28:22.003Z,12.50
2019-02-11T01:30:51.671Z,12.50
2019-02-11T01:33:21.409Z,12.50
2019-02-11T01:35:51.018Z,12.50
2019-02-11T01:38:21.069Z,12.50
2019-02-11T01:40:51.077Z,12.50
2019-02-11T01:43:20.899Z,12.50
2019-02-11T01:45:50.913Z,12.50
2019-02-11T01:48:20.541Z,12.50
2019-02-11T01:50:50.187Z,12.40
2019-02-11T01:53:19.855Z,12.40
2019-02-11T01:55:49.593Z,12.40
2019-02-11T01:58:19.675Z,12.40
2019-02-11T02:00:49.362Z,12.30
2019-02-11T02:03:18.977Z,12.30
2019-02-11T02:05:48.703Z,12.30
2019-02-11T02:08:18.490Z,12.30
2019-02-11T02:10:48.628Z,12.20
2019-02-11T02:13:18.245Z,12.20
2019-02-11T02:15:47.946Z,12.20
2019-02-11T02:18:17.562Z,12.10
2019-02-11T02:20:47.271Z,12.10
2019-02-11T02:23:16.924Z,12.00
2019-02-11T02:25:46.987Z,12.00
2019-02-11T02:28:16.724Z,12.00
2019-02-11T02:30:46.511Z,12.00
2019-02-11T02:33:16.261Z,12.00
2019-02-11T02:35:45.892Z,12.00
2019-02-11T02:38:15.532Z,11.90
2019-02-11T02:40:45.210Z,11.90
2019-02-11T02:43:14.911Z,11.90
2019-02-11T02:45:44.699Z,11.90
2019-02-11T02:48:14.388Z,11.90
2019-02-11T02:50:44.011Z,11.90
2019-02-11T02:53:14.101Z,11.90
2019-02-11T02:55:43.892Z,11.90
2019-02-11T02:58:13.514Z,11.90
2019-02-11T03:00:43.211Z,11.80
2019-02-11T03:03:12.953Z,11.80
2019-02-11T03:05:42.593Z,11.80
2019-02-11T03:08:12.203Z,11.80
2019-02-11T03:10:41.887Z,11.80
2019-02-11T03:13:11.779Z,11.80
2019-02-11T03:15:41.899Z,11.80
2019-02-11T03:18:11.555Z,11.80
2019-02-11T03:20:41.380Z,11.80
2019-02-11T03:23:11.112Z,11.80
2019-02-11T03:25:41.264Z,11.80
2019-02-11T03:28:11.066Z,11.80
2019-02-11T03:30:40.741Z,11.70
2019-02-11T03:33:10.689Z,11.70
2019-02-11T03:35:40.424Z,11.70
2019-02-11T03:38:10.161Z,11.70
2019-02-11T03:40:39.841Z,11.70
2019-02-11T03:43:09.518Z,11.70
2019-02-11T03:45:39.218Z,11.70
2019-02-11T03:48:08.920Z,11.70
2019-02-11T03:50:38.746Z,11.70
2019-02-11T03:53:08.403Z,11.60
2019-02-11T03:55:38.003Z,11.70
2019-02-11T03:58:07.717Z,11.60
2019-02-11T04:00:37.604Z,11.60
2019-02-11T04:03:07.307Z,11.60
2019-02-11T04:05:37.310Z,11.60
2019-02-11T04:08:07.086Z,11.60
2019-02-11T04:10:36.801Z,11.60
2019-02-11T04:13:06.389Z,11.60
2019-02-11T04:15:36.182Z,11.60
2019-02-11T04:18:05.933Z,11.60
2019-02-11T04:20:35.661Z,11.60
2019-02-11T04:23:05.430Z,11.70
2019-02-11T04:25:35.507Z,11.70
2019-02-11T04:28:05.243Z,11.70
2019-02-11T04:30:35.009Z,11.70
2019-02-11T04:33:04.778Z,11.70
2019-02-11T04:35:34.489Z,11.70
2019-02-11T04:38:04.158Z,11.80
2019-02-11T04:40:33.781Z,11.80
2019-02-11T04:43:03.406Z,11.80
2019-02-11T04:45:33.135Z,11.80
2019-02-11T04:48:03.100Z,11.80
2019-02-11T04:50:33.009Z,11.80
2019-02-11T04:53:03.030Z,11.80
2019-02-11T04:55:32.625Z,11.80
2019-02-11T04:58:02.516Z,11.80
2019-02-11T05:00:32.260Z,11.90
2019-02-11T05:03:01.897Z,11.90
2019-02-11T05:05:31.575Z,11.90
2019-02-11T05:08:01.224Z,11.90
2019-02-11T05:10:30.921Z,11.90
2019-02-11T05:13:00.574Z,11.90
2019-02-11T05:15:30.615Z,12.00
2019-02-11T05:18:00.326Z,12.00
2019-02-11T05:20:29.979Z,12.00
2019-02-11T05:22:59.595Z,12.00
2019-02-11T05:25:29.286Z,12.00
2019-02-11T05:27:58.900Z,12.00
2019-02-11T05:30:28.700Z,12.00
2019-02-11T05:32:58.327Z,12.00
2019-02-11T05:35:27.965Z,12.10
2019-02-11T05:37:57.562Z,12.10
2019-02-11T05:40:27.321Z,12.10
2019-02-11T05:42:57.048Z,12.10
2019-02-11T05:45:26.749Z,12.10
2019-02-11T05:47:56.366Z,12.10
2019-02-11T05:50:26.002Z,12.10
2019-02-11T05:52:55.637Z,12.10
2019-02-11T05:55:25.195Z,12.10
2019-02-11T05:57:54.813Z,12.10
2019-02-11T06:00:24.477Z,12.20
2019-02-11T06:02:54.202Z,12.20
2019-02-11T06:05:23.970Z,12.20
2019-02-11T06:07:53.686Z,12.20
2019-02-11T06:10:23.294Z,12.20
2019-02-11T06:12:52.933Z,12.20
2019-02-11T06:15:22.828Z,12.20
2019-02-11T06:17:52.488Z,12.20
2019-02-11T06:20:22.555Z,12.20
2019-02-11T06:22:52.322Z,12.20
2019-02-11T06:25:21.937Z,12.20
2019-02-11T06:27:51.591Z,12.20
2019-02-11T06:30:21.349Z,12.20
2019-02-11T06:32:51.025Z,12.20
2019-02-11T06:35:20.905Z,12.20
2019-02-11T06:37:50.535Z,12.20
2019-02-11T06:40:20.256Z,12.20
2019-02-11T06:42:49.852Z,12.20
2019-02-11T06:45:19.564Z,12.20
2019-02-11T06:47:49.313Z,12.30
2019-02-11T06:50:19.118Z,12.30
2019-02-11T06:52:48.659Z,12.30
2019-02-11T06:55:18.323Z,12.30
2019-02-11T06:57:47.999Z,12.30
2019-02-11T07:00:17.805Z,12.30
2019-02-11T07:02:47.427Z,12.30
2019-02-11T07:05:17.079Z,12.30
2019-02-11T07:07:46.756Z,12.40
2019-02-11T07:10:16.406Z,12.40
2019-02-11T07:12:46.182Z,12.40
2019-02-11T07:15:21.887Z,12.40
2019-02-11T07:17:47.400Z,12.40
2019-02-11T07:20:17.020Z,12.40
2019-02-11T07:22:51.655Z,12.40
2019-02-11T07:25:21.723Z,12.40
2019-02-11T07:27:51.380Z,12.40
2019-02-11T07:30:21.045Z,12.50
2019-02-11T07:32:50.703Z,12.50
2019-02-11T07:35:20.306Z,12.50
2019-02-11T07:37:49.951Z,12.50
2019-02-11T07:40:20.652Z,12.50
2019-02-11T07:43:08.017Z,12.50
2019-02-11T07:45:39.415Z,12.50
2019-02-11T07:48:09.157Z,12.50
2019-02-11T07:50:38.862Z,12.50
2019-02-11T07:53:08.553Z,12.60
2019-02-11T07:55:38.236Z,12.60
2019-02-11T07:58:08.375Z,12.60
2019-02-11T08:00:38.167Z,12.60
2019-02-11T08:03:07.833Z,12.60
2019-02-11T08:05:37.531Z,12.60
2019-02-11T08:08:07.212Z,12.60
2019-02-11T08:10:36.862Z,12.60
2019-02-11T08:13:06.541Z,12.70
2019-02-11T08:15:38.609Z,12.70
2019-02-11T08:18:07.891Z,12.70
2019-02-11T08:20:37.527Z,12.70
2019-02-11T08:23:13.236Z,12.70
2019-02-11T08:25:38.646Z,12.80
2019-02-11T08:28:08.272Z,12.80
2019-02-11T08:30:37.962Z,12.90
2019-02-11T08:33:07.714Z,13.00
2019-02-11T08:35:37.339Z,13.00
2019-02-11T08:38:06.967Z,13.10
2019-02-11T08:40:36.517Z,13.10
2019-02-11T08:43:06.239Z,13.10
2019-02-11T08:45:35.928Z,13.20
2019-02-11T08:48:05.585Z,13.20
2019-02-11T08:50:35.419Z,13.30
2019-02-11T08:53:05.211Z,13.30
2019-02-11T08:55:34.975Z,13.30
2019-02-11T08:58:04.819Z,13.30
2019-02-11T09:00:34.578Z,13.40
2019-02-11T09:03:04.327Z,13.40
2019-02-11T09:05:34.125Z,13.40
2019-02-11T09:08:03.831Z,13.40
2019-02-11T09:10:33.490Z,13.40
2019-02-11T09:13:03.175Z,13.40
2019-02-11T09:15:32.946Z,13.50
2019-02-11T09:18:02.646Z,13.50
2019-02-11T09:20:32.409Z,13.50
2019-02-11T09:23:02.391Z,13.50
2019-02-11T09:25:32.518Z,13.60
2019-02-11T09:28:02.347Z,13.60
2019-02-11T09:30:32.113Z,13.60
2019-02-11T09:33:01.815Z,13.60
2019-02-11T09:35:32.188Z,13.70
2019-02-11T09:38:02.051Z,13.60
2019-02-11T09:40:31.747Z,13.50
2019-02-11T09:43:01.465Z,13.50
2019-02-11T09:45:31.170Z,13.60
2019-02-11T09:48:01.235Z,13.80
2019-02-11T09:50:34.092Z,13.80
2019-02-11T09:53:05.197Z,13.90
2019-02-11T09:55:35.086Z,13.80
2019-02-11T09:58:04.903Z,13.80
2019-02-11T10:00:34.676Z,14.30
2019-02-11T10:03:04.633Z,14.80
2019-02-11T10:05:34.345Z,15.10
2019-02-11T10:08:04.137Z,15.40
2019-02-11T10:10:33.958Z,15.50
2019-02-11T10:13:04.065Z,15.50
2019-02-11T10:15:33.913Z,15.70
2019-02-11T10:18:03.616Z,15.90
2019-02-11T10:20:33.595Z,15.90
2019-02-11T10:23:03.357Z,15.60
2019-02-11T10:25:33.134Z,15.50
2019-02-11T10:28:05.915Z,15.60
2019-02-11T10:30:36.026Z,15.40
2019-02-11T10:33:05.787Z,15.30
2019-02-11T10:35:42.059Z,15.30
2019-02-11T10:38:07.194Z,15.30
2019-02-11T10:40:36.915Z,15.30
2019-02-11T10:43:06.607Z,15.30
2019-02-11T10:45:36.897Z,15.30
2019-02-11T10:48:06.755Z,15.50
2019-02-11T10:50:36.774Z,15.90
2019-02-11T10:53:06.614Z,16.00
2019-02-11T10:55:36.811Z,16.20
2019-02-11T10:58:06.506Z,16.20
2019-02-11T11:00:36.351Z,16.40
2019-02-11T11:03:06.159Z,16.60
2019-02-11T11:05:36.017Z,16.40
2019-02-11T11:08:05.893Z,16.40
2019-02-11T11:10:37.813Z,16.50
2019-02-11T11:13:07.615Z,16.90
2019-02-11T11:15:37.662Z,17.30
2019-02-11T11:18:07.918Z,17.50
2019-02-11T11:20:39.305Z,17.70
2019-02-11T11:23:09.113Z,17.60
2019-02-11T11:25:38.816Z,17.60
2019-02-11T11:28:08.377Z,17.70
2019-02-11T11:30:38.733Z,17.80
2019-02-11T11:33:08.602Z,18.00
2019-02-11T11:35:38.219Z,18.00
2019-02-11T11:38:07.985Z,18.00
2019-02-11T11:40:37.758Z,18.00
2019-02-11T11:43:07.545Z,17.90
2019-02-11T11:45:37.721Z,18.00
2019-02-11T11:48:07.409Z,18.00
2019-02-11T11:50:37.102Z,18.00
2019-02-11T11:53:07.099Z,17.90
2019-02-11T11:55:36.889Z,17.90
2019-02-11T11:58:06.641Z,17.90
2019-02-11T12:00:36.608Z,17.80
2019-02-11T12:03:06.486Z,17.70
2019-02-11T12:05:36.453Z,17.60
2019-02-11T12:08:06.233Z,17.60
2019-02-11T12:10:35.907Z,17.60
2019-02-11T12:13:21.608Z,17.60
2019-02-11T12:15:37.321Z,17.60
2019-02-11T12:18:07.159Z,17.50
2019-02-11T12:20:36.799Z,17.50
2019-02-11T12:23:06.619Z,17.40
2019-02-11T12:25:36.381Z,17.40
2019-02-11T12:28:06.230Z,17.40
2019-02-11T12:30:35.973Z,17.40
2019-02-11T12:33:05.758Z,17.20
2019-02-11T12:35:35.437Z,16.60
2019-02-11T12:38:05.220Z,16.10
2019-02-11T12:40:34.883Z,15.60
2019-02-11T12:43:04.628Z,15.20
2019-02-11T12:45:34.576Z,15.40
2019-02-11T12:48:04.329Z,15.40
2019-02-11T12:50:34.133Z,15.60
2019-02-11T12:53:03.811Z,16.10
2019-02-11T12:55:33.541Z,16.60
2019-02-11T12:58:03.315Z,17.10
2019-02-11T13:00:33.020Z,17.50
2019-02-11T13:03:02.923Z,17.80
2019-02-11T13:05:44.862Z,18.10
2019-02-11T13:08:04.093Z,18.30
2019-02-11T13:10:33.782Z,18.30
2019-02-11T13:13:06.612Z,18.30
2019-02-11T13:15:58.647Z,18.30
2019-02-11T13:18:07.925Z,18.30
2019-02-11T13:20:37.886Z,18.40
2019-02-11T13:23:08.116Z,18.40
2019-02-11T13:25:37.922Z,18.40
2019-02-11T13:28:08.307Z,18.40
2019-02-11T13:30:39.457Z,18.40
2019-02-11T13:33:09.249Z,18.60
2019-02-11T13:35:38.920Z,18.60
2019-02-11T13:38:08.639Z,18.60
2019-02-11T13:40:38.479Z,18.70
2019-02-11T13:43:08.438Z,18.60
2019-02-11T13:45:38.716Z,18.40
2019-02-11T13:48:08.898Z,18.40
2019-02-11T13:50:38.918Z,18.50
2019-02-11T13:53:08.684Z,18.50
2019-02-11T13:55:38.600Z,18.50
2019-02-11T13:58:09.012Z,18.60
2019-02-11T14:00:39.599Z,18.70
2019-02-11T14:03:09.387Z,18.70
2019-02-11T14:05:39.157Z,18.70
2019-02-11T14:08:09.172Z,18.70
2019-02-11T14:10:38.908Z,18.80
2019-02-11T14:13:08.908Z,18.30
2019-02-11T14:15:39.097Z,18.20
2019-02-11T14:18:14.434Z,18.40
2019-02-11T14:20:42.953Z,18.40
2019-02-11T14:23:13.164Z,18.30
2019-02-11T14:25:46.508Z,18.20
2019-02-11T14:28:14.315Z,18.10
2019-02-11T14:30:44.784Z,17.80
2019-02-11T14:33:14.834Z,17.90
2019-02-11T14:35:44.710Z,17.70
2019-02-11T14:38:14.651Z,17.60
2019-02-11T14:40:44.476Z,17.70
2019-02-11T14:43:14.238Z,17.90
2019-02-11T14:45:44.001Z,18.00
2019-02-11T14:48:26.843Z,17.90
2019-02-11T14:50:45.352Z,18.30
2019-02-11T14:53:14.978Z,18.50
2019-02-11T14:55:44.873Z,18.40
2019-02-11T14:58:14.650Z,18.60
2019-02-11T15:00:44.341Z,18.70
2019-02-11T15:03:14.312Z,18.70
2019-02-11T15:05:44.015Z,18.80
2019-02-11T15:08:13.798Z,18.80
2019-02-11T15:10:43.450Z,18.60
2019-02-11T15:13:13.129Z,18.50
2019-02-11T15:15:44.482Z,18.60
2019-02-11T15:18:14.137Z,18.50
2019-02-11T15:20:43.770Z,18.30
2019-02-11T15:23:13.395Z,18.30
2019-02-11T15:25:43.083Z,18.60
2019-02-11T15:28:13.145Z,18.60
2019-02-11T15:30:43.173Z,18.50
2019-02-11T15:33:12.790Z,18.70
2019-02-11T15:35:42.559Z,18.90
2019-02-11T15:38:12.189Z,18.90
2019-02-11T15:40:41.975Z,18.50
2019-02-11T15:43:11.922Z,18.30
2019-02-11T15:45:41.724Z,18.20
2019-02-11T15:48:11.460Z,18.20
2019-02-11T15:50:41.067Z,17.80
2019-02-11T15:53:10.723Z,17.50
2019-02-11T15:55:40.355Z,17.10
2019-02-11T15:58:10.063Z,16.90
2019-02-11T16:00:39.814Z,16.60
2019-02-11T16:03:09.694Z,16.20
2019-02-11T16:05:39.379Z,15.90
2019-02-11T16:08:09.422Z,15.70
2019-02-11T16:10:39.055Z,15.50
2019-02-11T16:13:08.681Z,15.20
2019-02-11T16:15:38.657Z,15.00
2019-02-11T16:18:08.327Z,14.80
2019-02-11T16:20:37.983Z,14.60
2019-02-11T16:23:07.615Z,14.50
2019-02-11T16:25:37.257Z,14.20
2019-02-11T16:28:06.855Z,14.20
2019-02-11T16:30:36.618Z,14.10
2019-02-11T16:33:06.365Z,13.90
2019-02-11T16:35:36.094Z,13.70
2019-02-11T16:38:05.757Z,13.40
2019-02-11T16:40:35.406Z,13.40
2019-02-11T16:43:05.201Z,13.20
2019-02-11T16:45:34.835Z,13.00
2019-02-11T16:48:04.670Z,12.90
2019-02-11T16:50:34.530Z,12.80
2019-02-11T16:53:04.265Z,12.70
2019-02-11T16:55:33.894Z,12.60
2019-02-11T16:58:03.593Z,12.30
2019-02-11T17:00:33.632Z,12.20
2019-02-11T17:03:03.409Z,12.10
2019-02-11T17:05:33.084Z,11.90
2019-02-11T17:08:02.809Z,11.80
2019-02-11T17:10:32.501Z,11.80
2019-02-11T17:13:02.142Z,11.80
2019-02-11T17:15:31.759Z,11.80
2019-02-11T17:18:01.514Z,11.80
2019-02-11T17:20:31.211Z,11.90
2019-02-11T17:23:00.904Z,11.80
2019-02-11T17:25:30.515Z,11.80
2019-02-11T17:28:00.163Z,11.70
2019-02-11T17:30:38.454Z,11.60
2019-02-11T17:33:08.155Z,11.60
2019-02-11T17:35:37.863Z,11.50
2019-02-11T17:38:07.647Z,11.30
2019-02-11T17:40:37.355Z,11.30
2019-02-11T17:43:07.157Z,11.30
2019-02-11T17:45:37.411Z,11.40
2019-02-11T17:48:08.953Z,11.40
2019-02-11T17:50:38.620Z,11.30
2019-02-11T17:53:14.359Z,11.40
2019-02-11T17:55:44.457Z,11.40
2019-02-11T17:58:14.209Z,11.40
2019-02-11T18:00:47.525Z,11.30
2019-02-11T18:03:17.311Z,11.30
2019-02-11T18:05:47.039Z,11.30
2019-02-11T18:08:16.820Z,11.40
2019-02-11T18:10:46.527Z,11.30
2019-02-11T18:13:16.167Z,11.30
2019-02-11T18:15:45.956Z,11.30
2019-02-11T18:18:15.595Z,11.30
2019-02-11T18:20:45.242Z,11.10
2019-02-11T18:23:14.917Z,11.10
2019-02-11T18:25:44.602Z,11.10
2019-02-11T18:28:14.262Z,11.10
2019-02-11T18:30:44.021Z,11.20
2019-02-11T18:33:14.037Z,11.10
2019-02-11T18:35:43.795Z,11.00
2019-02-11T18:38:13.528Z,11.00
2019-02-11T18:40:43.293Z,11.00
2019-02-11T18:43:13.122Z,11.00
2019-02-11T18:45:43.157Z,11.00
2019-02-11T18:48:12.910Z,11.00
2019-02-11T18:50:42.622Z,11.00
2019-02-11T18:53:12.251Z,11.00
2019-02-11T18:55:41.959Z,11.10
2019-02-11T18:58:12.106Z,11.10
2019-02-11T19:00:42.079Z,11.10
2019-02-11T19:03:12.150Z,11.10
2019-02-11T19:05:42.011Z,11.10
2019-02-11T19:08:12.068Z,11.10
2019-02-11T19:10:41.754Z,11.10
2019-02-11T19:13:11.906Z,11.00
2019-02-11T19:15:41.579Z,11.00
2019-02-11T19:18:11.728Z,11.00
2019-02-11T19:20:41.410Z,11.00
2019-02-11T19:23:11.244Z,11.00
2019-02-11T19:25:41.189Z,10.90
2019-02-11T19:28:11.263Z,10.80
2019-02-11T19:30:41.053Z,10.90
2019-02-11T19:33:11.469Z,10.90
2019-02-11T19:35:41.354Z,10.80
2019-02-11T19:38:11.388Z,10.70
2019-02-11T19:40:40.947Z,10.80
2019-02-11T19:43:10.648Z,10.70
2019-02-11T19:45:40.659Z,10.60
2019-02-11T19:48:10.389Z,10.70
2019-02-11T19:50:40.188Z,10.90
2019-02-11T19:53:10.173Z,11.00
2019-02-11T19:55:39.938Z,11.20
2019-02-11T19:58:09.583Z,11.20
2019-02-11T20:00:39.239Z,11.20
2019-02-11T20:03:08.920Z,11.30
2019-02-11T20:05:38.974Z,11.30
2019-02-11T20:08:08.587Z,11.30
2019-02-11T20:10:38.609Z,11.30
2019-02-11T20:13:08.383Z,11.50
2019-02-11T20:15:38.155Z,11.60
2019-02-11T20:18:07.912Z,11.80
2019-02-11T20:20:37.758Z,12.00
2019-02-11T20:23:07.538Z,12.00
2019-02-11T20:25:37.436Z,12.10
2019-02-11T20:28:07.099Z,12.10
2019-02-11T20:30:36.858Z,12.10
2019-02-11T20:33:06.760Z,12.00
2019-02-11T20:35:36.468Z,12.00
2019-02-11T20:38:06.202Z,12.00
2019-02-11T20:40:36.554Z,11.90
2019-02-11T20:43:06.237Z,11.90
2019-02-11T20:45:36.013Z,11.70
2019-02-11T20:48:05.856Z,11.70
2019-02-11T20:50:35.586Z,11.80
2019-02-11T20:53:05.650Z,11.60
2019-02-11T20:55:35.458Z,11.70
2019-02-11T20:58:05.045Z,11.60
2019-02-11T21:00:34.791Z,11.50
2019-02-11T21:03:08.379Z,11.40
2019-02-11T21:05:36.027Z,11.30
2019-02-11T21:08:06.381Z,11.40
2019-02-11T21:10:36.443Z,11.50
2019-02-11T21:13:06.147Z,11.40
2019-02-11T21:15:35.883Z,11.30
2019-02-11T21:18:05.692Z,11.10
2019-02-11T21:20:38.146Z,11.00
2019-02-11T21:23:09.800Z,11.00
2019-02-11T21:25:45.459Z,11.00
2019-02-11T21:28:15.106Z,11.00
2019-02-11T21:30:44.859Z,11.10
2019-02-11T21:33:14.531Z,11.10
2019-02-11T21:35:44.281Z,11.00
2019-02-11T21:38:13.955Z,10.90
2019-02-11T21:40:43.631Z,10.90
2019-02-11T21:43:13.811Z,10.80
2019-02-11T21:45:43.745Z,10.90
2019-02-11T21:48:13.406Z,10.80
2019-02-11T21:50:43.177Z,10.90
2019-02-11T21:53:12.906Z,10.70
2019-02-11T21:55:42.761Z,10.70
2019-02-11T21:58:12.422Z,10.70
2019-02-11T22:00:42.191Z,10.80
2019-02-11T22:03:13.688Z,11.00
2019-02-11T22:05:43.458Z,11.10
2019-02-11T22:08:13.151Z,11.10
2019-02-11T22:10:42.861Z,11.00
2019-02-11T22:13:12.858Z,11.00
2019-02-11T22:15:42.597Z,11.00
2019-02-11T22:18:12.190Z,11.10
2019-02-11T22:20:41.841Z,11.00
2019-02-11T22:23:11.483Z,10.90
2019-02-11T22:25:41.113Z,10.90
2019-02-11T22:28:10.937Z,11.00
2019-02-11T22:30:40.554Z,11.10
2019-02-11T22:33:10.627Z,11.00
2019-02-11T22:35:40.499Z,10.90
2019-02-11T22:38:10.316Z,10.80
2019-02-11T22:40:39.915Z,10.90
2019-02-11T22:43:09.629Z,10.90
2019-02-11T22:45:41.267Z,11.00
2019-02-11T22:48:10.769Z,11.20
2019-02-11T22:50:43.087Z,11.10
2019-02-11T22:53:11.854Z,11.00
2019-02-11T22:55:41.689Z,10.90
2019-02-11T22:58:11.353Z,10.80
2019-02-11T23:00:47.939Z,11.00
2019-02-11T23:03:18.172Z,11.10
2019-02-11T23:05:47.858Z,11.20
2019-02-11T23:08:17.593Z,11.30
2019-02-11T23:10:47.468Z,11.40
2019-02-11T23:13:17.459Z,11.20
2019-02-11T23:15:47.233Z,11.20
2019-02-11T23:18:16.918Z,11.10
2019-02-11T23:20:52.022Z,11.20
2019-02-11T23:23:17.964Z,11.20
2019-02-11T23:25:47.577Z,11.30
2019-02-11T23:28:17.321Z,11.40
2019-02-11T23:30:47.075Z,11.30
2019-02-11T23:33:16.822Z,11.10
2019-02-11T23:35:46.851Z,11.00
2019-02-11T23:38:16.447Z,11.40
2019-02-11T23:40:46.121Z,11.20
2019-02-11T23:43:15.806Z,11.10
2019-02-11T23:45:45.583Z,11.20
2019-02-11T23:48:15.270Z,11.30
2019-02-11T23:50:45.308Z,11.20
2019-02-11T23:53:15.002Z,11.20
2019-02-11T23:55:44.672Z,11.20
2019-02-11T23:58:14.257Z,11.20
